Time;durP1;ratioP1;P1;durP2;ratioP2;P2;SDS_P1;SDS_P2;PMS_P1;PMS_P2;Temp;Humidity;BMP_temperature;BMP_pressure;BME280_temperature;BME280_humidity;BME280_pressure;Samples;Min_cycle;Max_cycle;Signal;HPM_P1;HPM_P2
2022/10/13 00:01:48;;;;;;;;;;;9.20;99.90;;;;;;5079721;28;19924;-94
2022/10/13 00:04:14;;;;;;;;;;;9.20;99.90;;;;;;5079855;28;19935;-94
2022/10/13 00:06:39;;;;;;;;;;;9.60;99.90;;;;;;5079876;28;20283;-94
2022/10/13 00:09:05;;;;;;;;;;;9.20;99.90;;;;;;5079358;28;19976;-94
2022/10/13 00:11:31;;;;;;;;;;;9.30;99.90;;;;;;5062635;28;19924;-94
2022/10/13 00:13:58;;;;;;;;;;;9.20;99.90;;;;;;5100594;28;19923;-94
2022/10/13 00:16:24;;;;;;;;;;;9.20;99.90;;;;;;5100416;28;19973;-94
2022/10/13 00:18:50;;;;;;;;;;;10.20;99.90;;;;;;5100334;28;19924;-93
2022/10/13 00:21:21;;;;;;;;;;;9.80;99.90;;;;;;5099685;28;19927;-94
2022/10/13 00:23:48;;;;;;;;;;;9.30;99.90;;;;;;5083577;28;19932;-94
2022/10/13 00:26:14;;;;;;;;;;;11.10;99.90;;;;;;5100857;28;19992;-95
2022/10/13 00:28:40;;;;;;;;;;;9.30;99.90;;;;;;5084037;28;20203;-93
2022/10/13 00:31:20;;;;;;;;;;;9.30;99.90;;;;;;5100169;28;19939;-94
2022/10/13 00:33:48;;;;;;;;;;;9.30;99.90;;;;;;5100393;28;19924;-94
2022/10/13 00:36:13;;;;;;;;;;;9.30;99.90;;;;;;5100396;28;20005;-94
2022/10/13 00:38:39;;;;;;;;;;;9.30;99.90;;;;;;5100315;28;20212;-93
2022/10/13 00:41:05;;;;;;;;;;;9.30;99.90;;;;;;5082906;28;19963;-94
2022/10/13 00:43:49;;;;;;;;;;;9.50;99.90;;;;;;5099578;28;20315;-93
2022/10/13 00:46:15;;;;;;;;;;;9.30;99.90;;;;;;5100210;28;19924;-94
2022/10/13 00:48:41;;;;;;;;;;;9.40;99.90;;;;;;5099588;28;19947;-94
2022/10/13 00:51:07;;;;;;;;;;;9.30;99.90;;;;;;5099830;28;19924;-93
2022/10/13 00:53:35;;;;;;;;;;;9.40;99.90;;;;;;5099997;28;20434;-93
2022/10/13 00:56:01;;;;;;;;;;;9.30;99.90;;;;;;5082933;28;19923;-94
2022/10/13 00:58:31;;;;;;;;;;;11.40;99.90;;;;;;5099731;28;19930;-93
2022/10/13 01:00:57;;;;;;;;;;;9.40;99.90;;;;;;5099668;28;19923;-94
2022/10/13 01:03:24;;;;;;;;;;;11.40;99.90;;;;;;5099885;28;19969;-94
2022/10/13 01:05:51;;;;;;;;;;;10.70;99.90;;;;;;5082981;28;19976;-94
2022/10/13 01:08:17;;;;;;;;;;;9.40;99.90;;;;;;5099817;28;19924;-95
2022/10/13 01:10:43;;;;;;;;;;;9.40;99.90;;;;;;5099492;28;19923;-91
2022/10/13 01:13:15;;;;;;;;;;;9.40;99.90;;;;;;5099534;28;19924;-94
2022/10/13 01:15:46;;;;;;;;;;;9.40;99.90;;;;;;5083998;28;19969;-93
2022/10/13 01:18:21;;;;;;;;;;;9.50;99.90;;;;;;5113339;28;20014;-93
2022/10/13 01:20:49;;;;;;;;;;;9.30;99.90;;;;;;5101417;28;19930;-94
2022/10/13 01:23:38;;;;;;;;;;;9.40;99.90;;;;;;5099027;28;20432;-95
2022/10/13 01:26:32;;;;;;;;;;;9.40;99.90;;;;;;5056177;28;19949;-94
2022/10/13 01:29:07;;;;;;;;;;;9.70;99.90;;;;;;5100028;28;20010;-94
2022/10/13 01:31:32;;;;;;;;;;;9.30;99.90;;;;;;5082053;28;19923;-94
2022/10/13 01:34:13;;;;;;;;;;;9.30;99.90;;;;;;5082231;28;19930;-94
2022/10/13 01:36:46;;;;;;;;;;;9.30;99.90;;;;;;5099318;28;20348;-93
2022/10/13 01:39:34;;;;;;;;;;;10.10;99.90;;;;;;5082840;28;20022;-94
2022/10/13 01:42:12;;;;;;;;;;;9.30;99.90;;;;;;5081817;28;19924;-94
2022/10/13 01:44:40;;;;;;;;;;;9.30;99.90;;;;;;5081249;28;19923;-94
2022/10/13 01:47:06;;;;;;;;;;;9.30;99.90;;;;;;5098447;28;19938;-95
2022/10/13 01:49:33;;;;;;;;;;;9.30;99.90;;;;;;5098964;28;20367;-94
2022/10/13 01:52:01;;;;;;;;;;;9.20;99.90;;;;;;5081837;28;19934;-94
2022/10/13 01:54:27;;;;;;;;;;;9.50;99.90;;;;;;5098556;28;19931;-94
2022/10/13 01:56:53;;;;;;;;;;;9.40;99.90;;;;;;5081620;28;19924;-94
2022/10/13 01:59:18;;;;;;;;;;;9.40;99.90;;;;;;5098789;28;20254;-94
2022/10/13 02:01:45;;;;;;;;;;;11.00;99.90;;;;;;5097629;28;19924;-94
2022/10/13 02:04:24;;;;;;;;;;;9.40;99.90;;;;;;5098331;28;20014;-93
2022/10/13 02:06:50;;;;;;;;;;;9.40;99.90;;;;;;5098537;28;19980;-93
2022/10/13 02:09:21;;;;;;;;;;;9.40;99.90;;;;;;5097833;28;19980;-94
2022/10/13 02:11:50;;;;;;;;;;;9.40;99.90;;;;;;5098294;28;19927;-93
2022/10/13 02:14:18;;;;;;;;;;;9.30;99.90;;;;;;5098206;28;19928;-93
2022/10/13 02:16:44;;;;;;;;;;;9.30;99.90;;;;;;5098461;28;19928;-94
2022/10/13 02:19:11;;;;;;;;;;;9.40;99.90;;;;;;5081214;28;19923;-95
2022/10/13 02:21:37;;;;;;;;;;;10.10;99.90;;;;;;5097489;28;19923;-94
2022/10/13 02:24:03;;;;;;;;;;;9.30;99.90;;;;;;5097968;28;19925;-94
2022/10/13 02:26:29;;;;;;;;;;;9.30;99.90;;;;;;5064428;28;19923;-94
2022/10/13 02:28:55;;;;;;;;;;;9.30;99.90;;;;;;5098011;28;19972;-94
2022/10/13 02:31:20;;;;;;;;;;;11.60;99.90;;;;;;5097770;28;20294;-94
2022/10/13 02:33:46;;;;;;;;;;;9.20;99.90;;;;;;5097588;28;19931;-94
2022/10/13 02:36:12;;;;;;;;;;;9.40;99.90;;;;;;5096947;28;19924;-93
2022/10/13 02:38:37;;;;;;;;;;;9.20;99.90;;;;;;5097678;28;19924;-94
2022/10/13 02:41:03;;;;;;;;;;;9.30;99.90;;;;;;5097505;28;20359;-94
2022/10/13 02:43:29;;;;;;;;;;;9.20;99.90;;;;;;5080496;28;19924;-95
2022/10/13 02:45:54;;;;;;;;;;;7.30;99.90;;;;;;5097686;28;19930;-93
2022/10/13 02:48:20;;;;;;;;;;;9.40;99.90;;;;;;5098228;28;20296;-94
2022/10/13 02:50:46;;;;;;;;;;;9.40;99.90;;;;;;5080716;28;19927;-95
2022/10/13 02:53:12;;;;;;;;;;;9.20;99.90;;;;;;5097493;28;19973;-95
2022/10/13 02:55:37;;;;;;;;;;;9.20;99.90;;;;;;5097548;28;19928;-95
2022/10/13 02:58:03;;;;;;;;;;;9.20;99.90;;;;;;5080692;28;19927;-94
2022/10/13 03:00:29;;;;;;;;;;;11.00;99.90;;;;;;5096945;28;20010;-95
2022/10/13 03:02:55;;;;;;;;;;;9.20;99.90;;;;;;5080356;28;19930;-94
2022/10/13 03:05:20;;;;;;;;;;;9.20;99.90;;;;;;5097503;28;20034;-95
2022/10/13 03:07:46;;;;;;;;;;;9.20;99.90;;;;;;5081002;28;19963;-91
2022/10/13 03:10:12;;;;;;;;;;;9.20;99.90;;;;;;5080821;28;19987;-95
2022/10/13 03:12:37;;;;;;;;;;;9.20;99.90;;;;;;5080958;28;19923;-95
2022/10/13 03:15:03;;;;;;;;;;;9.20;99.90;;;;;;5082255;28;20004;-96
2022/10/13 03:17:29;;;;;;;;;;;9.30;99.90;;;;;;5116211;28;19928;-93
2022/10/13 03:19:54;;;;;;;;;;;9.30;99.90;;;;;;5081119;28;20504;-95
2022/10/13 03:22:20;;;;;;;;;;;9.20;99.90;;;;;;5064805;28;19930;-95
2022/10/13 03:24:46;;;;;;;;;;;9.30;99.90;;;;;;5098106;28;20019;-94
2022/10/13 03:27:11;;;;;;;;;;;9.40;99.90;;;;;;5097495;28;20285;-95
2022/10/13 03:29:37;;;;;;;;;;;9.40;99.90;;;;;;5080429;28;19946;-94
2022/10/13 03:32:03;;;;;;;;;;;9.50;99.90;;;;;;5080171;28;19924;-95
2022/10/13 03:34:28;;;;;;;;;;;7.80;99.90;;;;;;5063259;28;19986;-95
2022/10/13 03:36:54;;;;;;;;;;;9.30;99.90;;;;;;5096894;28;20359;-94
2022/10/13 03:39:20;;;;;;;;;;;9.50;99.90;;;;;;5080099;28;20003;-94
2022/10/13 03:41:46;;;;;;;;;;;9.90;99.90;;;;;;5079884;28;19934;-94
2022/10/13 03:44:12;;;;;;;;;;;9.90;99.90;;;;;;5076479;28;20094;-94
2022/10/13 03:46:38;;;;;;;;;;;9.40;99.90;;;;;;5098561;28;19924;-94
2022/10/13 03:49:04;;;;;;;;;;;11.70;99.90;;;;;;5100997;28;20276;-94
2022/10/13 03:51:29;;;;;;;;;;;9.80;99.90;;;;;;5100880;28;19981;-94
2022/10/13 03:53:55;;;;;;;;;;;9.20;99.90;;;;;;5083527;28;19932;-95
2022/10/13 03:56:22;;;;;;;;;;;9.20;99.90;;;;;;5118151;28;19971;-94
2022/10/13 03:58:53;;;;;;;;;;;9.20;99.90;;;;;;5083904;28;19928;-94
2022/10/13 04:01:20;;;;;;;;;;;7.90;99.90;;;;;;5083572;28;19924;-93
2022/10/13 04:03:46;;;;;;;;;;;9.30;99.90;;;;;;5101065;28;20418;-94
2022/10/13 04:06:11;;;;;;;;;;;9.20;99.90;;;;;;5100743;28;20020;-94
2022/10/13 04:08:37;;;;;;;;;;;9.20;99.90;;;;;;5083657;28;19924;-94
2022/10/13 04:11:04;;;;;;;;;;;9.60;99.90;;;;;;5101487;28;19942;-95
2022/10/13 04:13:30;;;;;;;;;;;9.30;99.90;;;;;;5083939;28;19923;-95
2022/10/13 04:16:00;;;;;;;;;;;10.00;99.90;;;;;;5083724;28;19927;-95
2022/10/13 04:18:26;;;;;;;;;;;9.60;99.90;;;;;;5117551;28;19938;-94
2022/10/13 04:20:51;;;;;;;;;;;10.80;99.90;;;;;;5083982;28;19924;-95
2022/10/13 04:23:17;;;;;;;;;;;9.30;99.90;;;;;;5100645;28;19923;-94
2022/10/13 04:25:43;;;;;;;;;;;9.20;99.90;;;;;;5117420;28;19946;-92
2022/10/13 04:28:10;;;;;;;;;;;11.40;99.90;;;;;;5100541;28;19934;-95
2022/10/13 04:30:35;;;;;;;;;;;9.30;99.90;;;;;;5083596;28;19928;-95
2022/10/13 04:33:01;;;;;;;;;;;9.70;99.90;;;;;;5100359;28;19924;-94
2022/10/13 04:35:27;;;;;;;;;;;9.40;99.90;;;;;;5101043;28;19930;-93
2022/10/13 04:37:56;;;;;;;;;;;9.30;99.90;;;;;;5083389;28;20328;-94
2022/10/13 04:40:22;;;;;;;;;;;7.80;99.90;;;;;;5100692;28;19930;-93
2022/10/13 04:42:51;;;;;;;;;;;9.80;99.90;;;;;;5099817;28;20290;-94
2022/10/13 04:45:17;;;;;;;;;;;9.40;99.90;;;;;;5096564;28;19924;-94
2022/10/13 04:47:43;;;;;;;;;;;9.20;99.90;;;;;;5098492;28;20015;-93
2022/10/13 04:50:09;;;;;;;;;;;9.30;99.90;;;;;;5100142;28;19970;-95
2022/10/13 04:52:35;;;;;;;;;;;9.20;99.90;;;;;;5100002;28;20240;-95
2022/10/13 04:55:01;;;;;;;;;;;9.30;99.90;;;;;;5100627;28;19930;-95
2022/10/13 04:57:26;;;;;;;;;;;10.70;99.90;;;;;;5082020;28;19924;-94
2022/10/13 04:59:52;;;;;;;;;;;9.90;99.90;;;;;;5099583;28;19924;-94
2022/10/13 05:02:20;;;;;;;;;;;9.30;99.90;;;;;;5082673;28;19930;-93
2022/10/13 05:04:46;;;;;;;;;;;9.30;99.90;;;;;;5082908;28;19949;-94
2022/10/13 05:07:11;;;;;;;;;;;9.40;99.90;;;;;;5100175;28;19924;-94
2022/10/13 05:09:37;;;;;;;;;;;11.60;99.90;;;;;;5082563;28;20263;-93
2022/10/13 05:12:02;;;;;;;;;;;9.30;99.90;;;;;;5099940;28;19927;-94
2022/10/13 05:14:29;;;;;;;;;;;9.70;99.90;;;;;;5108012;28;19987;-94
2022/10/13 05:16:55;;;;;;;;;;;9.30;99.90;;;;;;5086924;28;20307;-94
2022/10/13 05:19:21;;;;;;;;;;;9.60;99.90;;;;;;5099142;28;19931;-93
2022/10/13 05:21:46;;;;;;;;;;;9.30;99.90;;;;;;5081931;28;19974;-94
2022/10/13 05:24:14;;;;;;;;;;;9.30;99.90;;;;;;5098959;28;20266;-94
2022/10/13 05:26:40;;;;;;;;;;;10.00;99.90;;;;;;5098963;28;19930;-94
2022/10/13 05:29:05;;;;;;;;;;;10.10;99.90;;;;;;5098794;28;20011;-92
2022/10/13 05:31:32;;;;;;;;;;;9.30;99.90;;;;;;5081724;28;20309;-94
2022/10/13 05:33:59;;;;;;;;;;;10.20;99.90;;;;;;5082055;28;19973;-94
2022/10/13 05:36:24;;;;;;;;;;;9.40;99.90;;;;;;5081917;28;19928;-92
2022/10/13 05:38:51;;;;;;;;;;;9.30;99.90;;;;;;5081488;28;19930;-93
2022/10/13 05:41:17;;;;;;;;;;;9.40;99.90;;;;;;5083223;28;19923;-91
2022/10/13 05:43:42;;;;;;;;;;;9.30;99.90;;;;;;5082490;28;19946;-92
2022/10/13 05:46:08;;;;;;;;;;;9.40;99.90;;;;;;5064801;28;19989;-93
2022/10/13 05:48:34;;;;;;;;;;;9.50;99.90;;;;;;5083765;28;19924;-91
2022/10/13 05:51:02;;;;;;;;;;;9.50;99.90;;;;;;5117022;28;19931;-93
2022/10/13 05:53:29;;;;;;;;;;;9.40;99.90;;;;;;5083646;28;19930;-93
2022/10/13 05:55:57;;;;;;;;;;;9.40;99.90;;;;;;5080680;28;19924;-93
2022/10/13 05:58:23;;;;;;;;;;;9.50;99.90;;;;;;5098158;28;19924;-91
2022/10/13 06:00:50;;;;;;;;;;;8.40;99.90;;;;;;5080493;28;19927;-92
2022/10/13 06:03:18;;;;;;;;;;;9.50;99.90;;;;;;5099551;28;19924;-94
2022/10/13 06:05:46;;;;;;;;;;;9.60;99.90;;;;;;5082175;28;19977;-90
2022/10/13 06:08:13;;;;;;;;;;;9.40;99.90;;;;;;5082149;28;20243;-90
2022/10/13 06:10:39;;;;;;;;;;;9.80;99.90;;;;;;5080240;28;19927;-91
2022/10/13 06:13:05;;;;;;;;;;;9.90;99.90;;;;;;5081174;28;19924;-91
2022/10/13 06:15:31;;;;;;;;;;;9.50;99.90;;;;;;5096772;28;19924;-92
2022/10/13 06:17:57;;;;;;;;;;;9.70;99.90;;;;;;5080384;28;19924;-93
2022/10/13 06:20:23;;;;;;;;;;;9.80;99.90;;;;;;5080631;28;19931;-90
2022/10/13 06:22:49;;;;;;;;;;;11.00;99.90;;;;;;5079749;28;20023;-90
2022/10/13 06:25:15;;;;;;;;;;;9.20;99.90;;;;;;5096669;28;19931;-89
2022/10/13 06:27:41;;;;;;;;;;;9.50;99.90;;;;;;5096831;28;19924;-88
2022/10/13 06:30:07;;;;;;;;;;;11.50;99.90;;;;;;5097604;28;20343;-89
2022/10/13 06:32:33;;;;;;;;;;;9.60;99.90;;;;;;5114634;28;20341;-89
2022/10/13 06:34:58;;;;;;;;;;;9.60;99.90;;;;;;5096620;28;19948;-89
2022/10/13 06:37:24;;;;;;;;;;;10.30;99.90;;;;;;5079748;28;20018;-88
2022/10/13 06:39:49;;;;;;;;;;;9.80;99.90;;;;;;5079653;28;19926;-89
2022/10/13 06:42:15;;;;;;;;;;;9.80;99.90;;;;;;5079803;28;19928;-89
2022/10/13 06:44:41;;;;;;;;;;;9.80;99.90;;;;;;5079097;28;19931;-88
2022/10/13 06:47:06;;;;;;;;;;;10.80;99.90;;;;;;5080047;28;20026;-89
2022/10/13 06:49:32;;;;;;;;;;;9.90;99.90;;;;;;5097712;28;19923;-90
2022/10/13 06:51:58;;;;;;;;;;;10.00;99.90;;;;;;5096997;28;19976;-90
2022/10/13 06:54:23;;;;;;;;;;;9.90;99.90;;;;;;5096479;28;19923;-88
2022/10/13 06:56:50;;;;;;;;;;;11.50;99.90;;;;;;5096250;28;20022;-90
2022/10/13 06:59:15;;;;;;;;;;;10.70;99.90;;;;;;5097055;28;20140;-90
2022/10/13 07:01:41;;;;;;;;;;;10.10;99.90;;;;;;5096802;28;20086;-90
2022/10/13 07:04:07;;;;;;;;;;;10.10;99.90;;;;;;5096260;28;19943;-89
2022/10/13 07:06:33;;;;;;;;;;;10.10;99.90;;;;;;5096289;28;19923;-89
2022/10/13 07:09:01;;;;;;;;;;;10.10;99.90;;;;;;5096079;28;19931;-89
2022/10/13 07:11:26;;;;;;;;;;;11.30;99.90;;;;;;5096318;28;19923;-90
2022/10/13 07:13:53;;;;;;;;;;;11.80;99.90;;;;;;5083545;28;19931;-90
2022/10/13 07:16:18;;;;;;;;;;;10.20;99.90;;;;;;5097756;28;20235;-89
2022/10/13 07:18:45;;;;;;;;;;;10.30;99.90;;;;;;5096101;28;19923;-88
2022/10/13 07:21:11;;;;;;;;;;;10.30;99.90;;;;;;5078327;28;19930;-88
2022/10/13 07:23:40;;;;;;;;;;;10.90;99.90;;;;;;5088198;28;19943;-89
2022/10/13 07:26:09;;;;;;;;;;;10.40;99.90;;;;;;5131657;22;19924;-91
2022/10/13 07:28:35;;;;;;;;;;;10.50;99.90;;;;;;5105456;28;19966;-89
2022/10/13 07:31:06;;;;;;;;;;;10.60;99.90;;;;;;5104087;28;19931;-88
2022/10/13 07:33:31;;;;;;;;;;;10.60;99.90;;;;;;5110520;28;19931;-90
2022/10/13 07:35:57;;;;;;;;;;;10.70;99.90;;;;;;5124230;28;20310;-90
2022/10/13 07:38:26;;;;;;;;;;;10.80;99.90;;;;;;5109481;28;19927;-89
2022/10/13 07:40:52;;;;;;;;;;;10.50;99.90;;;;;;5108931;28;19959;-89
2022/10/13 07:43:17;;;;;;;;;;;10.80;99.90;;;;;;5090954;28;19924;-91
2022/10/13 07:45:43;;;;;;;;;;;10.90;99.90;;;;;;5096247;28;19938;-91
2022/10/13 07:48:08;;;;;;;;;;;10.90;99.90;;;;;;5126147;28;20378;-90
2022/10/13 07:50:35;;;;;;;;;;;10.90;99.90;;;;;;5093000;28;19930;-89
2022/10/13 07:53:01;;;;;;;;;;;10.90;99.90;;;;;;5109094;28;19949;-90
2022/10/13 07:55:26;;;;;;;;;;;10.90;99.90;;;;;;5092857;28;19923;-91
2022/10/13 07:57:52;;;;;;;;;;;11.00;99.90;;;;;;5090302;28;19923;-90
2022/10/13 08:00:17;;;;;;;;;;;11.00;99.90;;;;;;5105959;28;19927;-91
2022/10/13 08:02:43;;;;;;;;;;;11.00;99.90;;;;;;5070437;28;19928;-91
2022/10/13 08:05:09;;;;;;;;;;;11.00;99.90;;;;;;5072834;28;19955;-90
2022/10/13 08:07:36;;;;;;;;;;;11.00;99.90;;;;;;5089908;28;19912;-90
2022/10/13 08:10:02;;;;;;;;;;;11.00;99.90;;;;;;5089229;28;19924;-89
2022/10/13 08:12:28;;;;;;;;;;;11.00;99.90;;;;;;5076795;28;19924;-90
2022/10/13 08:14:54;;;;;;;;;;;11.10;99.90;;;;;;5070554;28;19934;-91
2022/10/13 08:17:19;;;;;;;;;;;11.10;99.90;;;;;;5095636;28;19934;-91
2022/10/13 08:19:45;;;;;;;;;;;11.20;99.90;;;;;;5095682;28;19923;-90
2022/10/13 08:22:11;;;;;;;;;;;11.20;99.90;;;;;;5111955;28;20481;-92
2022/10/13 08:24:36;;;;;;;;;;;11.50;99.90;;;;;;5063231;28;19928;-92
2022/10/13 08:27:02;;;;;;;;;;;11.30;99.90;;;;;;5086252;28;19931;-89
2022/10/13 08:29:28;;;;;;;;;;;11.30;99.90;;;;;;5109591;28;19983;-90
2022/10/13 08:31:54;;;;;;;;;;;11.40;99.90;;;;;;5091718;28;19982;-91
2022/10/13 08:34:20;;;;;;;;;;;11.40;99.90;;;;;;5091355;28;19935;-92
2022/10/13 08:36:46;;;;;;;;;;;11.50;99.90;;;;;;5084013;28;19928;-91
2022/10/13 08:39:12;;;;;;;;;;;11.50;99.90;;;;;;5082752;28;19975;-92
2022/10/13 08:41:40;;;;;;;;;;;11.50;99.90;;;;;;5069162;28;19928;-92
2022/10/13 08:44:09;;;;;;;;;;;11.60;99.90;;;;;;5089837;28;19979;-91
2022/10/13 08:46:38;;;;;;;;;;;11.60;99.90;;;;;;5088037;28;19923;-90
2022/10/13 08:49:05;;;;;;;;;;;11.60;99.90;;;;;;5086593;28;19995;-92
2022/10/13 08:51:30;;;;;;;;;;;11.70;99.90;;;;;;5070988;28;19924;-91
2022/10/13 08:53:56;;;;;;;;;;;11.70;99.90;;;;;;5088306;28;19991;-91
2022/10/13 08:56:23;;;;;;;;;;;11.70;99.90;;;;;;5083883;28;19924;-92
2022/10/13 08:58:50;;;;;;;;;;;9.90;99.90;;;;;;5089358;28;19932;-90
2022/10/13 09:01:22;;;;;;;;;;;11.80;99.90;;;;;;5066244;28;19931;-91
2022/10/13 09:03:49;;;;;;;;;;;11.80;99.90;;;;;;5090418;28;19923;-91
2022/10/13 09:06:15;;;;;;;;;;;11.80;99.90;;;;;;5085462;28;19923;-90
2022/10/13 09:08:43;;;;;;;;;;;11.70;99.90;;;;;;5097317;28;19984;-92
2022/10/13 09:11:09;;;;;;;;;;;11.70;99.90;;;;;;5076633;28;19930;-91
2022/10/13 09:13:35;;;;;;;;;;;11.80;99.90;;;;;;5106018;28;19923;-92
2022/10/13 09:16:01;;;;;;;;;;;11.80;99.90;;;;;;5101398;28;20398;-91
2022/10/13 09:18:29;;;;;;;;;;;11.80;99.90;;;;;;5067609;28;19927;-91
2022/10/13 09:21:08;;;;;;;;;;;11.90;99.90;;;;;;5094989;28;20015;-91
2022/10/13 09:23:34;;;;;;;;;;;11.90;99.90;;;;;;5084283;28;19924;-91
2022/10/13 09:26:05;;;;;;;;;;;11.90;99.90;;;;;;5086446;28;20018;-92
2022/10/13 09:28:31;;;;;;;;;;;12.00;99.90;;;;;;5086838;28;20016;-89
2022/10/13 09:31:01;;;;;;;;;;;12.00;99.90;;;;;;5083744;28;19924;-90
2022/10/13 09:33:27;;;;;;;;;;;12.00;99.90;;;;;;5087731;28;19948;-89
2022/10/13 09:35:59;;;;;;;;;;;12.10;99.90;;;;;;5083464;28;19928;-89
2022/10/13 09:38:25;;;;;;;;;;;12.20;99.90;;;;;;5087706;28;20327;-89
2022/10/13 09:41:05;;;;;;;;;;;12.20;99.90;;;;;;5082977;28;19924;-89
2022/10/13 09:43:32;;;;;;;;;;;12.20;99.90;;;;;;5086442;28;19931;-89
2022/10/13 09:45:58;;;;;;;;;;;12.20;99.90;;;;;;5085447;28;19945;-90
2022/10/13 09:48:25;;;;;;;;;;;12.20;99.90;;;;;;5086030;28;19931;-90
2022/10/13 09:50:52;;;;;;;;;;;12.30;99.90;;;;;;5097342;28;19930;-90
2022/10/13 09:53:21;;;;;;;;;;;12.30;99.90;;;;;;5102426;28;19987;-91
2022/10/13 09:55:48;;;;;;;;;;;12.30;99.90;;;;;;5097732;28;19928;-91
2022/10/13 09:58:14;;;;;;;;;;;12.30;99.90;;;;;;5069494;28;19963;-89
2022/10/13 10:00:40;;;;;;;;;;;12.30;99.90;;;;;;5087320;28;19935;-90
2022/10/13 10:03:06;;;;;;;;;;;12.40;99.90;;;;;;5081285;28;19931;-91
2022/10/13 10:05:31;;;;;;;;;;;12.40;99.90;;;;;;5100365;28;20141;-91
2022/10/13 10:08:01;;;;;;;;;;;12.50;99.90;;;;;;5083937;28;19959;-90
2022/10/13 10:10:34;;;;;;;;;;;12.50;99.90;;;;;;5099893;28;19924;-93
2022/10/13 10:13:00;;;;;;;;;;;12.50;99.90;;;;;;5099004;28;19924;-90
2022/10/13 10:15:37;;;;;;;;;;;12.60;99.90;;;;;;5079914;28;19928;-89
2022/10/13 10:18:07;;;;;;;;;;;12.60;99.90;;;;;;5075507;28;19988;-90
2022/10/13 10:20:32;;;;;;;;;;;12.50;99.90;;;;;;5097257;28;19931;-89
2022/10/13 10:23:13;;;;;;;;;;;12.60;99.90;;;;;;5102504;28;19924;-90
2022/10/13 10:25:41;;;;;;;;;;;12.60;99.90;;;;;;5087983;28;19924;-91
2022/10/13 10:28:16;;;;;;;;;;;12.50;99.90;;;;;;5062447;28;19976;-90
2022/10/13 10:30:45;;;;;;;;;;;12.50;99.90;;;;;;5082982;28;19954;-91
2022/10/13 10:33:12;;;;;;;;;;;12.50;99.90;;;;;;5079021;28;19924;-90
2022/10/13 10:35:55;;;;;;;;;;;12.50;99.90;;;;;;5063869;28;20294;-89
2022/10/13 10:38:31;;;;;;;;;;;12.50;99.90;;;;;;5082898;28;19935;-90
2022/10/13 10:41:16;;;;;;;;;;;12.50;99.90;;;;;;5046752;28;19924;-90
2022/10/13 10:43:41;;;;;;;;;;;12.50;99.90;;;;;;5095488;28;20057;-91
2022/10/13 10:46:13;;;;;;;;;;;12.60;99.90;;;;;;5091001;28;19928;-90
2022/10/13 10:48:39;;;;;;;;;;;12.60;99.90;;;;;;5075801;28;19920;-92
2022/10/13 10:51:06;;;;;;;;;;;12.70;99.90;;;;;;5078626;28;19945;-91
2022/10/13 10:53:41;;;;;;;;;;;12.70;99.90;;;;;;5075880;28;19920;-90
2022/10/13 10:56:12;;;;;;;;;;;12.70;99.90;;;;;;5096346;28;19920;-91
2022/10/13 10:58:48;;;;;;;;;;;12.80;99.90;;;;;;5069533;28;20004;-89
2022/10/13 11:01:20;;;;;;;;;;;12.80;99.90;;;;;;5063632;28;19924;-89
2022/10/13 11:03:52;;;;;;;;;;;12.90;99.90;;;;;;5074401;28;19930;-88
2022/10/13 11:06:25;;;;;;;;;;;13.00;99.90;;;;;;5063655;28;19964;-89
2022/10/13 11:08:50;;;;;;;;;;;12.90;99.90;;;;;;5061776;28;20018;-89
2022/10/13 11:11:19;;;;;;;;;;;12.90;99.90;;;;;;5062206;28;19924;-89
2022/10/13 11:13:49;;;;;;;;;;;12.90;99.90;;;;;;5074981;28;19980;-90
2022/10/13 11:16:25;;;;;;;;;;;12.90;99.90;;;;;;5079711;28;19946;-88
2022/10/13 11:18:55;;;;;;;;;;;13.00;99.90;;;;;;5075349;28;19931;-92
2022/10/13 11:21:21;;;;;;;;;;;13.00;99.90;;;;;;5066807;28;19924;-91
2022/10/13 11:23:48;;;;;;;;;;;13.10;99.90;;;;;;5083247;28;19928;-91
2022/10/13 11:26:34;;;;;;;;;;;13.10;99.90;;;;;;5104556;28;20386;-92
2022/10/13 11:28:59;;;;;;;;;;;13.20;99.90;;;;;;5097360;28;19924;-91
2022/10/13 11:31:46;;;;;;;;;;;13.20;99.90;;;;;;5103405;28;19920;-91
2022/10/13 11:34:29;;;;;;;;;;;13.30;99.90;;;;;;5088916;28;19945;-90
2022/10/13 11:36:56;;;;;;;;;;;13.30;99.90;;;;;;5081468;28;19924;-91
2022/10/13 11:39:26;;;;;;;;;;;13.30;99.90;;;;;;5084044;28;19924;-91
2022/10/13 11:41:54;;;;;;;;;;;13.40;99.90;;;;;;5104993;28;19930;-91
2022/10/13 11:44:23;;;;;;;;;;;13.40;99.90;;;;;;5086716;28;19924;-91
2022/10/13 11:46:52;;;;;;;;;;;13.40;99.90;;;;;;5088283;28;19932;-92
2022/10/13 11:49:36;;;;;;;;;;;13.40;99.90;;;;;;5085815;28;19931;-91
2022/10/13 11:52:11;;;;;;;;;;;13.40;99.90;;;;;;5088207;28;19924;-91
2022/10/13 11:54:37;;;;;;;;;;;13.40;99.90;;;;;;5080982;28;19931;-93
2022/10/13 11:57:16;;;;;;;;;;;13.40;99.90;;;;;;5097709;28;19928;-92
2022/10/13 11:59:44;;;;;;;;;;;13.40;99.90;;;;;;5105571;28;19952;-93
2022/10/13 12:02:10;;;;;;;;;;;13.40;99.90;;;;;;5097740;28;19924;-92
2022/10/13 12:04:36;;;;;;;;;;;13.50;99.90;;;;;;5087827;28;19970;-92
2022/10/13 12:07:06;;;;;;;;;;;13.50;99.90;;;;;;5104891;28;19931;-92
2022/10/13 12:09:32;;;;;;;;;;;13.50;99.90;;;;;;5091673;28;19924;-92
2022/10/13 12:12:03;;;;;;;;;;;13.50;99.90;;;;;;5091826;28;19970;-93
2022/10/13 12:14:37;;;;;;;;;;;13.50;99.90;;;;;;5106755;28;19924;-92
2022/10/13 12:17:03;;;;;;;;;;;13.50;99.90;;;;;;5080785;28;19927;-91
2022/10/13 12:19:30;;;;;;;;;;;13.50;99.90;;;;;;5081060;28;20331;-93
2022/10/13 12:22:00;;;;;;;;;;;13.50;99.90;;;;;;5090227;28;20004;-92
2022/10/13 12:24:29;;;;;;;;;;;13.60;99.90;;;;;;5126116;28;19923;-91
2022/10/13 12:26:55;;;;;;;;;;;13.60;99.90;;;;;;5090545;28;19970;-90
2022/10/13 12:29:23;;;;;;;;;;;13.60;99.90;;;;;;5086351;28;19924;-92
2022/10/13 12:31:49;;;;;;;;;;;13.60;99.90;;;;;;5089014;28;19931;-91
2022/10/13 12:34:17;;;;;;;;;;;13.60;99.90;;;;;;5092128;28;19923;-92
2022/10/13 12:36:43;;;;;;;;;;;13.60;99.90;;;;;;5086181;28;19931;-92
2022/10/13 12:39:11;;;;;;;;;;;13.70;99.90;;;;;;5092115;28;19923;-91
2022/10/13 12:41:39;;;;;;;;;;;13.70;99.90;;;;;;5106354;28;19931;-91
2022/10/13 12:44:06;;;;;;;;;;;13.70;99.90;;;;;;5089013;28;19928;-91
2022/10/13 12:46:43;;;;;;;;;;;13.70;99.90;;;;;;5104670;28;19927;-92
2022/10/13 12:49:38;;;;;;;;;;;13.70;99.90;;;;;;5099403;28;19924;-92
2022/10/13 12:52:04;;;;;;;;;;;13.70;99.90;;;;;;5089113;28;19931;-93
2022/10/13 12:54:31;;;;;;;;;;;13.80;99.90;;;;;;5089972;28;19924;-89
2022/10/13 12:56:58;;;;;;;;;;;13.70;99.90;;;;;;5089799;28;19983;-89
2022/10/13 12:59:25;;;;;;;;;;;13.80;99.90;;;;;;5089748;28;19932;-89
2022/10/13 13:01:52;;;;;;;;;;;13.70;99.90;;;;;;5104660;28;19968;-90
2022/10/13 13:04:27;;;;;;;;;;;13.80;99.90;;;;;;5090432;28;19939;-89
2022/10/13 13:06:57;;;;;;;;;;;13.80;99.90;;;;;;5087950;28;19992;-89
2022/10/13 13:09:27;;;;;;;;;;;13.80;99.90;;;;;;5105170;28;19974;-90
2022/10/13 13:12:05;;;;;;;;;;;13.80;99.90;;;;;;5075188;28;19935;-90
2022/10/13 13:14:38;;;;;;;;;;;13.80;99.90;;;;;;5087507;28;19963;-89
2022/10/13 13:17:24;;;;;;;;;;;13.80;99.90;;;;;;5085484;28;20439;-90
2022/10/13 13:19:50;;;;;;;;;;;13.80;99.90;;;;;;5077031;28;20391;-89
2022/10/13 13:22:16;;;;;;;;;;;13.80;99.90;;;;;;5106951;28;19928;-90
2022/10/13 13:24:42;;;;;;;;;;;13.80;99.90;;;;;;5106961;28;19931;-89
2022/10/13 13:27:16;;;;;;;;;;;13.80;99.90;;;;;;5105107;28;20425;-89
2022/10/13 13:29:42;;;;;;;;;;;13.80;99.90;;;;;;5098096;28;19924;-90
2022/10/13 13:32:12;;;;;;;;;;;13.80;99.90;;;;;;5070276;28;19945;-89
2022/10/13 13:34:37;;;;;;;;;;;13.80;99.90;;;;;;5090040;28;19963;-90
2022/10/13 13:37:03;;;;;;;;;;;13.80;99.90;;;;;;5105737;28;19931;-89
2022/10/13 13:39:29;;;;;;;;;;;13.90;99.90;;;;;;5073127;28;20014;-90
2022/10/13 13:41:54;;;;;;;;;;;13.90;99.90;;;;;;5089432;28;20397;-89
2022/10/13 13:44:20;;;;;;;;;;;13.90;99.90;;;;;;5104863;28;19945;-90
2022/10/13 13:46:45;;;;;;;;;;;14.00;99.90;;;;;;5089295;28;19950;-89
2022/10/13 13:49:11;;;;;;;;;;;14.00;99.90;;;;;;5087664;28;19944;-89
2022/10/13 13:51:37;;;;;;;;;;;14.10;99.90;;;;;;5090012;28;19924;-90
2022/10/13 13:54:03;;;;;;;;;;;14.00;99.90;;;;;;5088038;28;19928;-89
2022/10/13 13:56:28;;;;;;;;;;;14.00;99.90;;;;;;5086100;28;19930;-89
2022/10/13 13:58:54;;;;;;;;;;;14.00;99.90;;;;;;5068565;28;19928;-89
2022/10/13 14:01:20;;;;;;;;;;;14.00;99.90;;;;;;5087231;28;19928;-90
2022/10/13 14:03:45;;;;;;;;;;;13.90;99.90;;;;;;5072798;28;19931;-89
2022/10/13 14:06:18;;;;;;;;;;;13.90;99.90;;;;;;5087261;28;20005;-89
2022/10/13 14:08:43;;;;;;;;;;;13.90;99.90;;;;;;5089707;28;20035;-90
2022/10/13 14:11:09;;;;;;;;;;;13.90;99.90;;;;;;5086995;28;19924;-89
2022/10/13 14:13:34;;;;;;;;;;;13.90;99.90;;;;;;5089535;28;19979;-90
2022/10/13 14:16:01;;;;;;;;;;;13.80;99.90;;;;;;5088139;28;19932;-90
2022/10/13 14:18:27;;;;;;;;;;;13.80;99.90;;;;;;5104462;28;19975;-90
2022/10/13 14:20:52;;;;;;;;;;;13.80;99.90;;;;;;5089353;28;19936;-91
2022/10/13 14:23:18;;;;;;;;;;;13.80;99.90;;;;;;5069962;28;19931;-88
2022/10/13 14:25:43;;;;;;;;;;;13.80;99.90;;;;;;5089088;28;19963;-90
2022/10/13 14:28:09;;;;;;;;;;;13.80;99.90;;;;;;5087222;28;19931;-92